sensor_id;sensor_type;location;lat;lon;timestamp;pressure;altitude;pressure_sealevel;temperature;humidity
74346;BME280;62776;50.518;6.732;2023-02-03T00:02:06;97527.53;;;7.36;100.00
74346;BME280;62776;50.518;6.732;2023-02-03T00:04:55;97526.69;;;7.36;100.00
74346;BME280;62776;50.518;6.732;2023-02-03T00:07:52;97526.69;;;7.36;100.00
74346;BME280;62776;50.518;6.732;2023-02-03T00:10:49;97517.03;;;7.29;100.00
74346;BME280;62776;50.518;6.732;2023-02-03T00:13:47;97519.56;;;7.26;100.00
74346;BME280;62776;50.518;6.732;2023-02-03T00:16:34;97521.47;;;7.34;100.00
74346;BME280;62776;50.518;6.732;2023-02-03T00:19:24;97522.28;;;7.32;100.00
74346;BME280;62776;50.518;6.732;2023-02-03T00:22:17;97520.56;;;7.32;100.00
74346;BME280;62776;50.518;6.732;2023-02-03T00:25:07;97505.13;;;7.37;100.00
74346;BME280;62776;50.518;6.732;2023-02-03T00:27:56;97499.06;;;7.35;100.00
74346;BME280;62776;50.518;6.732;2023-02-03T00:30:45;97500.00;;;7.38;100.00
74346;BME280;62776;50.518;6.732;2023-02-03T00:33:39;97491.38;;;7.39;100.00
74346;BME280;62776;50.518;6.732;2023-02-03T00:36:41;97469.78;;;7.37;100.00
74346;BME280;62776;50.518;6.732;2023-02-03T00:39:28;97456.91;;;7.42;100.00
74346;BME280;62776;50.518;6.732;2023-02-03T00:42:24;97458.56;;;7.35;100.00
74346;BME280;62776;50.518;6.732;2023-02-03T00:45:25;97455.78;;;7.25;100.00
74346;BME280;62776;50.518;6.732;2023-02-03T00:48:14;97449.03;;;7.34;100.00
74346;BME280;62776;50.518;6.732;2023-02-03T00:51:07;97436.13;;;7.34;100.00
74346;BME280;62776;50.518;6.732;2023-02-03T00:53:56;97449.94;;;7.36;100.00
74346;BME280;62776;50.518;6.732;2023-02-03T00:56:43;97435.34;;;7.40;100.00
74346;BME280;62776;50.518;6.732;2023-02-03T00:59:49;97441.19;;;7.28;100.00
74346;BME280;62776;50.518;6.732;2023-02-03T01:02:48;97440.44;;;7.35;100.00
74346;BME280;62776;50.518;6.732;2023-02-03T01:05:35;97431.88;;;7.39;100.00
74346;BME280;62776;50.518;6.732;2023-02-03T01:08:27;97424.06;;;7.36;100.00
74346;BME280;62776;50.518;6.732;2023-02-03T01:11:16;97424.13;;;7.39;100.00
74346;BME280;62776;50.518;6.732;2023-02-03T01:14:12;97432.81;;;7.41;100.00
74346;BME280;62776;50.518;6.732;2023-02-03T01:17:01;97437.91;;;7.38;100.00
74346;BME280;62776;50.518;6.732;2023-02-03T01:19:49;97433.63;;;7.40;100.00
74346;BME280;62776;50.518;6.732;2023-02-03T01:22:43;97425.88;;;7.40;100.00
74346;BME280;62776;50.518;6.732;2023-02-03T01:25:35;97428.41;;;7.37;100.00
74346;BME280;62776;50.518;6.732;2023-02-03T01:28:21;97425.88;;;7.40;100.00
74346;BME280;62776;50.518;6.732;2023-02-03T01:31:15;97428.44;;;7.39;100.00
74346;BME280;62776;50.518;6.732;2023-02-03T01:34:02;97437.09;;;7.41;100.00
74346;BME280;62776;50.518;6.732;2023-02-03T01:36:48;97436.22;;;7.40;100.00
74346;BME280;62776;50.518;6.732;2023-02-03T01:39:35;97441.41;;;7.42;100.00
74346;BME280;62776;50.518;6.732;2023-02-03T01:42:23;97434.50;;;7.41;100.00
74346;BME280;62776;50.518;6.732;2023-02-03T01:45:19;97448.31;;;7.41;100.00
74346;BME280;62776;50.518;6.732;2023-02-03T01:48:07;97462.03;;;7.37;100.00
74346;BME280;62776;50.518;6.732;2023-02-03T01:51:03;97474.06;;;7.35;100.00
74346;BME280;62776;50.518;6.732;2023-02-03T01:53:52;97480.25;;;7.43;100.00
74346;BME280;62776;50.518;6.732;2023-02-03T01:56:47;97486.19;;;7.39;100.00
74346;BME280;62776;50.518;6.732;2023-02-03T01:59:43;97491.41;;;7.41;100.00
74346;BME280;62776;50.518;6.732;2023-02-03T02:02:32;97493.09;;;7.39;100.00
74346;BME280;62776;50.518;6.732;2023-02-03T02:08:43;97475.84;;;7.39;100.00
74346;BME280;62776;50.518;6.732;2023-02-03T02:11:36;97487.13;;;7.43;100.00
74346;BME280;62776;50.518;6.732;2023-02-03T02:14:22;97494.94;;;7.44;100.00
74346;BME280;62776;50.518;6.732;2023-02-03T02:17:27;97487.13;;;7.41;100.00
74346;BME280;62776;50.518;6.732;2023-02-03T02:24:25;97486.00;;;7.29;100.00
74346;BME280;62776;50.518;6.732;2023-02-03T02:30:34;97481.06;;;7.42;100.00
74346;BME280;62776;50.518;6.732;2023-02-03T02:33:26;97471.59;;;7.43;100.00
74346;BME280;62776;50.518;6.732;2023-02-03T02:45:21;97488.66;;;7.30;100.00
74346;BME280;62776;50.518;6.732;2023-02-03T02:48:35;97486.59;;;7.11;100.00
74346;BME280;62776;50.518;6.732;2023-02-03T02:51:26;97493.72;;;7.24;100.00
74346;BME280;62776;50.518;6.732;2023-02-03T02:54:33;97485.56;;;7.03;100.00
74346;BME280;62776;50.518;6.732;2023-02-03T02:57:25;97482.34;;;7.16;100.00
74346;BME280;62776;50.518;6.732;2023-02-03T03:00:24;97467.63;;;7.10;100.00
74346;BME280;62776;50.518;6.732;2023-02-03T03:03:22;97451.16;;;7.07;100.00
74346;BME280;62776;50.518;6.732;2023-02-03T03:06:20;97442.41;;;6.99;100.00
74346;BME280;62776;50.518;6.732;2023-02-03T03:09:24;97439.81;;;6.99;100.00
74346;BME280;62776;50.518;6.732;2023-02-03T03:12:31;97429.50;;;7.00;100.00
74346;BME280;62776;50.518;6.732;2023-02-03T03:15:24;97437.28;;;7.02;100.00
74346;BME280;62776;50.518;6.732;2023-02-03T03:18:19;97433.81;;;7.00;100.00
74346;BME280;62776;50.518;6.732;2023-02-03T03:21:06;97438.28;;;7.10;100.00
74346;BME280;62776;50.518;6.732;2023-02-03T03:24:00;97453.75;;;7.07;100.00
74346;BME280;62776;50.518;6.732;2023-02-03T03:27:12;97457.22;;;7.07;100.00
74346;BME280;62776;50.518;6.732;2023-02-03T03:30:07;97455.50;;;7.08;100.00
74346;BME280;62776;50.518;6.732;2023-02-03T03:32:58;97471.09;;;7.12;100.00
74346;BME280;62776;50.518;6.732;2023-02-03T03:39:21;97473.38;;;6.96;100.00
74346;BME280;62776;50.518;6.732;2023-02-03T03:45:53;97466.47;;;6.95;100.00
74346;BME280;62776;50.518;6.732;2023-02-03T03:48:57;97464.72;;;6.94;100.00
74346;BME280;62776;50.518;6.732;2023-02-03T03:51:58;97474.25;;;6.96;100.00
74346;BME280;62776;50.518;6.732;2023-02-03T03:54:54;97478.47;;;6.93;100.00
74346;BME280;62776;50.518;6.732;2023-02-03T03:58:06;97481.19;;;6.99;100.00
74346;BME280;62776;50.518;6.732;2023-02-03T04:01:02;97474.34;;;7.02;100.00
74346;BME280;62776;50.518;6.732;2023-02-03T04:03:59;97457.97;;;7.02;100.00
74346;BME280;62776;50.518;6.732;2023-02-03T04:06:56;97450.41;;;7.11;100.00
74346;BME280;62776;50.518;6.732;2023-02-03T04:09:45;97439.28;;;7.17;100.00
74346;BME280;62776;50.518;6.732;2023-02-03T04:12:32;97437.53;;;7.17;100.00
74346;BME280;62776;50.518;6.732;2023-02-03T04:15:19;97436.75;;;7.21;100.00
74346;BME280;62776;50.518;6.732;2023-02-03T04:18:17;97421.19;;;7.18;100.00
74346;BME280;62776;50.518;6.732;2023-02-03T04:21:16;97418.63;;;7.18;100.00
74346;BME280;62776;50.518;6.732;2023-02-03T04:24:03;97424.72;;;7.22;100.00
74346;BME280;62776;50.518;6.732;2023-02-03T04:26:52;97426.47;;;7.24;100.00
74346;BME280;62776;50.518;6.732;2023-02-03T04:29:48;97443.72;;;7.25;100.00
74346;BME280;62776;50.518;6.732;2023-02-03T04:32:43;97444.56;;;7.24;100.00
74346;BME280;62776;50.518;6.732;2023-02-03T04:35:30;97445.44;;;7.25;100.00
74346;BME280;62776;50.518;6.732;2023-02-03T04:38:26;97437.59;;;7.20;100.00
74346;BME280;62776;50.518;6.732;2023-02-03T04:41:12;97452.44;;;7.30;100.00
74346;BME280;62776;50.518;6.732;2023-02-03T04:44:02;97451.47;;;7.25;100.00
74346;BME280;62776;50.518;6.732;2023-02-03T04:46:53;97451.56;;;7.31;100.00
74346;BME280;62776;50.518;6.732;2023-02-03T04:49:47;97449.91;;;7.33;100.00
74346;BME280;62776;50.518;6.732;2023-02-03T04:52:34;97454.25;;;7.36;100.00
74346;BME280;62776;50.518;6.732;2023-02-03T04:55:20;97456.81;;;7.34;100.00
74346;BME280;62776;50.518;6.732;2023-02-03T04:58:07;97450.81;;;7.35;100.00
74346;BME280;62776;50.518;6.732;2023-02-03T05:00:57;97449.84;;;7.30;100.00
74346;BME280;62776;50.518;6.732;2023-02-03T05:03:45;97455.94;;;7.34;100.00
74346;BME280;62776;50.518;6.732;2023-02-03T05:06:41;97455.09;;;7.35;100.00
74346;BME280;62776;50.518;6.732;2023-02-03T05:09:28;97446.50;;;7.36;100.00
74346;BME280;62776;50.518;6.732;2023-02-03T05:12:14;97445.59;;;7.34;100.00
74346;BME280;62776;50.518;6.732;2023-02-03T05:15:04;97448.13;;;7.31;100.00
74346;BME280;62776;50.518;6.732;2023-02-03T05:17:56;97460.19;;;7.30;100.00
74346;BME280;62776;50.518;6.732;2023-02-03T05:20:43;97460.25;;;7.33;100.00
74346;BME280;62776;50.518;6.732;2023-02-03T05:23:29;97456.84;;;7.37;100.00
74346;BME280;62776;50.518;6.732;2023-02-03T05:26:24;97452.56;;;7.38;100.00
74346;BME280;62776;50.518;6.732;2023-02-03T05:29:18;97443.91;;;7.36;100.00
74346;BME280;62776;50.518;6.732;2023-02-03T05:32:07;97441.34;;;7.37;100.00
74346;BME280;62776;50.518;6.732;2023-02-03T05:34:53;97444.81;;;7.39;100.00
74346;BME280;62776;50.518;6.732;2023-02-03T05:37:42;97448.25;;;7.38;100.00
74346;BME280;62776;50.518;6.732;2023-02-03T05:40:29;97442.22;;;7.38;100.00
74346;BME280;62776;50.518;6.732;2023-02-03T05:43:37;97457.69;;;7.35;100.00
74346;BME280;62776;50.518;6.732;2023-02-03T05:46:24;97450.75;;;7.34;100.00
74346;BME280;62776;50.518;6.732;2023-02-03T05:49:19;97449.81;;;7.27;100.00
74346;BME280;62776;50.518;6.732;2023-02-03T05:52:09;97456.84;;;7.37;100.00
74346;BME280;62776;50.518;6.732;2023-02-03T05:54:58;97453.38;;;7.35;100.00
74346;BME280;62776;50.518;6.732;2023-02-03T05:57:48;97444.75;;;7.33;100.00
74346;BME280;62776;50.518;6.732;2023-02-03T06:00:37;97443.00;;;7.34;100.00
74346;BME280;62776;50.518;6.732;2023-02-03T06:03:35;97443.16;;;7.41;100.00
74346;BME280;62776;50.518;6.732;2023-02-03T06:06:24;97430.06;;;7.34;100.00
74346;BME280;62776;50.518;6.732;2023-02-03T06:09:31;97443.81;;;7.31;100.00
74346;BME280;62776;50.518;6.732;2023-02-03T06:12:31;97434.47;;;7.38;100.00
74346;BME280;62776;50.518;6.732;2023-02-03T06:15:21;97441.41;;;7.40;100.00
74346;BME280;62776;50.518;6.732;2023-02-03T06:18:10;97462.03;;;7.37;100.00
74346;BME280;62776;50.518;6.732;2023-02-03T06:21:01;97478.38;;;7.35;100.00
74346;BME280;62776;50.518;6.732;2023-02-03T06:23:59;97462.91;;;7.38;100.00
74346;BME280;62776;50.518;6.732;2023-02-03T06:26:45;97484.53;;;7.41;100.00
74346;BME280;62776;50.518;6.732;2023-02-03T06:29:32;97500.09;;;7.44;100.00
74346;BME280;62776;50.518;6.732;2023-02-03T06:32:21;97500.13;;;7.47;100.00
74346;BME280;62776;50.518;6.732;2023-02-03T06:35:08;97500.13;;;7.46;100.00
74346;BME280;62776;50.518;6.732;2023-02-03T06:38:03;97488.84;;;7.42;100.00
74346;BME280;62776;50.518;6.732;2023-02-03T06:40:49;97486.34;;;7.47;100.00
74346;BME280;62776;50.518;6.732;2023-02-03T06:43:36;97494.09;;;7.47;100.00
74346;BME280;62776;50.518;6.732;2023-02-03T06:46:22;97487.19;;;7.47;100.00
74346;BME280;62776;50.518;6.732;2023-02-03T06:49:21;97480.25;;;7.45;100.00
74346;BME280;62776;50.518;6.732;2023-02-03T06:52:38;97474.25;;;7.44;100.00
74346;BME280;62776;50.518;6.732;2023-02-03T06:55:24;97477.66;;;7.43;100.00
74346;BME280;62776;50.518;6.732;2023-02-03T06:58:13;97465.63;;;7.45;100.00
74346;BME280;62776;50.518;6.732;2023-02-03T07:01:03;97460.44;;;7.45;100.00
74346;BME280;62776;50.518;6.732;2023-02-03T07:03:57;97457.00;;;7.46;100.00
74346;BME280;62776;50.518;6.732;2023-02-03T07:06:46;97460.44;;;7.45;100.00
74346;BME280;62776;50.518;6.732;2023-02-03T07:09:32;97446.72;;;7.49;100.00
74346;BME280;62776;50.518;6.732;2023-02-03T07:12:20;97434.56;;;7.45;100.00
74346;BME280;62776;50.518;6.732;2023-02-03T07:15:07;97450.16;;;7.50;100.00
74346;BME280;62776;50.518;6.732;2023-02-03T07:17:54;97432.09;;;7.51;100.00
74346;BME280;62776;50.518;6.732;2023-02-03T07:20:43;97435.50;;;7.50;100.00
74346;BME280;62776;50.518;6.732;2023-02-03T07:23:32;97442.38;;;7.50;100.00
74346;BME280;62776;50.518;6.732;2023-02-03T07:26:25;97435.44;;;7.46;100.00
74346;BME280;62776;50.518;6.732;2023-02-03T07:29:18;97432.09;;;7.53;100.00
74346;BME280;62776;50.518;6.732;2023-02-03T07:32:07;97430.28;;;7.47;100.00
74346;BME280;62776;50.518;6.732;2023-02-03T07:34:54;97437.31;;;7.54;100.00
74346;BME280;62776;50.518;6.732;2023-02-03T07:37:52;97443.28;;;7.50;100.00
74346;BME280;62776;50.518;6.732;2023-02-03T07:40:40;97455.41;;;7.54;100.00
74346;BME280;62776;50.518;6.732;2023-02-03T07:43:29;97451.19;;;7.59;100.00
74346;BME280;62776;50.518;6.732;2023-02-03T07:46:18;97453.72;;;7.56;100.00
74346;BME280;62776;50.518;6.732;2023-02-03T07:49:10;97449.41;;;7.57;100.00
74346;BME280;62776;50.518;6.732;2023-02-03T07:51:57;97456.47;;;7.65;100.00
74346;BME280;62776;50.518;6.732;2023-02-03T07:54:46;97460.81;;;7.69;100.00
74346;BME280;62776;50.518;6.732;2023-02-03T07:57:32;97460.81;;;7.69;100.00
74346;BME280;62776;50.518;6.732;2023-02-03T08:00:22;97464.22;;;7.65;100.00
74346;BME280;62776;50.518;6.732;2023-02-03T08:03:08;97448.78;;;7.71;100.00
74346;BME280;62776;50.518;6.732;2023-02-03T08:06:04;97474.63;;;7.68;100.00
74346;BME280;62776;50.518;6.732;2023-02-03T08:08:51;97460.91;;;7.76;100.00
74346;BME280;62776;50.518;6.732;2023-02-03T08:11:39;97457.44;;;7.73;100.00
74346;BME280;62776;50.518;6.732;2023-02-03T08:14:25;97441.09;;;7.76;100.00
74346;BME280;62776;50.518;6.732;2023-02-03T08:17:11;97432.50;;;7.80;100.00
74346;BME280;62776;50.518;6.732;2023-02-03T08:20:00;97442.06;;;7.83;100.00
74346;BME280;62776;50.518;6.732;2023-02-03T08:22:49;97442.06;;;7.84;100.00
74346;BME280;62776;50.518;6.732;2023-02-03T08:25:39;97442.06;;;7.86;100.00
74346;BME280;62776;50.518;6.732;2023-02-03T08:28:25;97460.34;;;7.95;100.00
74346;BME280;62776;50.518;6.732;2023-02-03T08:31:12;97467.28;;;7.97;100.00
74346;BME280;62776;50.518;6.732;2023-02-03T08:34:10;97482.78;;;7.96;100.00
74346;BME280;62776;50.518;6.732;2023-02-03T08:36:56;97466.44;;;7.98;100.00
74346;BME280;62776;50.518;6.732;2023-02-03T08:39:45;97468.94;;;7.92;100.00
74346;BME280;62776;50.518;6.732;2023-02-03T08:42:32;97470.78;;;7.99;100.00
74346;BME280;62776;50.518;6.732;2023-02-03T08:45:20;97459.47;;;7.94;100.00
74346;BME280;62776;50.518;6.732;2023-02-03T08:48:13;97467.16;;;7.88;100.00
74346;BME280;62776;50.518;6.732;2023-02-03T08:51:12;97463.66;;;7.86;100.00
74346;BME280;62776;50.518;6.732;2023-02-03T08:53:59;97472.44;;;7.96;100.00
74346;BME280;62776;50.518;6.732;2023-02-03T08:56:50;97463.75;;;7.91;100.00
74346;BME280;62776;50.518;6.732;2023-02-03T08:59:41;97487.03;;;7.91;100.00
74346;BME280;62776;50.518;6.732;2023-02-03T09:02:28;97471.63;;;7.98;100.00
74346;BME280;62776;50.518;6.732;2023-02-03T09:05:14;97469.94;;;8.02;100.00
74346;BME280;62776;50.518;6.732;2023-02-03T09:08:03;97461.31;;;8.03;100.00
74346;BME280;62776;50.518;6.732;2023-02-03T09:11:11;97464.78;;;8.03;100.00
74346;BME280;62776;50.518;6.732;2023-02-03T09:13:57;97486.47;;;8.11;100.00
74346;BME280;62776;50.518;6.732;2023-02-03T09:16:44;97481.34;;;8.16;100.00
74346;BME280;62776;50.518;6.732;2023-02-03T09:19:33;97469.25;;;8.15;100.00
74346;BME280;62776;50.518;6.732;2023-02-03T09:22:23;97464.97;;;8.17;100.00
74346;BME280;62776;50.518;6.732;2023-02-03T09:25:12;97470.88;;;8.08;100.00
74346;BME280;62776;50.518;6.732;2023-02-03T09:28:01;97470.97;;;8.13;100.00
74346;BME280;62776;50.518;6.732;2023-02-03T09:30:50;97466.66;;;8.15;100.00
74346;BME280;62776;50.518;6.732;2023-02-03T09:33:39;97465.84;;;8.19;100.00
74346;BME280;62776;50.518;6.732;2023-02-03T09:36:29;97471.03;;;8.19;100.00
74346;BME280;62776;50.518;6.732;2023-02-03T09:39:15;97478.75;;;8.16;100.00
74346;BME280;62776;50.518;6.732;2023-02-03T09:42:26;97482.03;;;8.03;100.00
74346;BME280;62776;50.518;6.732;2023-02-03T09:45:29;97485.50;;;8.05;100.00
74346;BME280;62776;50.518;6.732;2023-02-03T09:48:32;97479.34;;;7.95;100.00
74346;BME280;62776;50.518;6.732;2023-02-03T09:51:48;97477.41;;;7.82;100.00
74346;BME280;62776;50.518;6.732;2023-02-03T09:57:43;97484.56;;;7.98;100.00
74346;BME280;62776;50.518;6.732;2023-02-03T10:00:41;97465.56;;;7.98;100.00
74346;BME280;62776;50.518;6.732;2023-02-03T10:03:42;97471.66;;;8.03;100.00
74346;BME280;62776;50.518;6.732;2023-02-03T10:06:40;97487.03;;;7.91;100.00
74346;BME280;62776;50.518;6.732;2023-02-03T10:16:14;97505.72;;;7.71;100.00
74346;BME280;62776;50.518;6.732;2023-02-03T10:19:18;97493.72;;;7.78;100.00
74346;BME280;62776;50.518;6.732;2023-02-03T10:22:07;97496.44;;;7.86;100.00
74346;BME280;62776;50.518;6.732;2023-02-03T10:25:40;97481.47;;;7.66;100.00
74346;BME280;62776;50.518;6.732;2023-02-03T10:28:39;97503.31;;;7.82;100.00
74346;BME280;62776;50.518;6.732;2023-02-03T10:31:32;97499.06;;;7.89;100.00
74346;BME280;62776;50.518;6.732;2023-02-03T10:34:20;97504.47;;;7.47;100.00
74346;BME280;62776;50.518;6.732;2023-02-03T10:37:28;97503.88;;;7.64;100.00
74346;BME280;62776;50.518;6.732;2023-02-03T10:40:23;97517.13;;;7.83;100.00
74346;BME280;62776;50.518;6.732;2023-02-03T10:43:18;97516.31;;;7.87;100.00
74346;BME280;62776;50.518;6.732;2023-02-03T10:46:28;97528.19;;;7.76;100.00
74346;BME280;62776;50.518;6.732;2023-02-03T10:49:15;97523.06;;;7.79;100.00
74346;BME280;62776;50.518;6.732;2023-02-03T10:52:09;97533.41;;;7.77;100.00
74346;BME280;62776;50.518;6.732;2023-02-03T10:55:29;97534.69;;;7.51;100.00
74346;BME280;62776;50.518;6.732;2023-02-03T10:58:32;97540.09;;;7.64;100.00
74346;BME280;62776;50.518;6.732;2023-02-03T11:01:22;97539.22;;;7.64;100.00
74346;BME280;62776;50.518;6.732;2023-02-03T11:04:42;97538.03;;;7.44;100.00
74346;BME280;62776;50.518;6.732;2023-02-03T11:07:31;97536.63;;;7.62;100.00
74346;BME280;62776;50.518;6.732;2023-02-03T11:10:54;97533.63;;;7.38;100.00
74346;BME280;62776;50.518;6.732;2023-02-03T11:13:54;97522.75;;;7.57;100.00
74346;BME280;62776;50.518;6.732;2023-02-03T11:16:51;97514.16;;;7.61;100.00
74346;BME280;62776;50.518;6.732;2023-02-03T11:19:48;97495.28;;;7.65;100.00
74346;BME280;62776;50.518;6.732;2023-02-03T11:22:51;97484.00;;;7.62;100.00
74346;BME280;62776;50.518;6.732;2023-02-03T11:25:40;97486.78;;;7.76;100.00
74346;BME280;62776;50.518;6.732;2023-02-03T11:28:28;97481.78;;;7.85;100.00
74346;BME280;62776;50.518;6.732;2023-02-03T11:31:18;97484.38;;;7.86;100.00
74346;BME280;62776;50.518;6.732;2023-02-03T11:34:30;97473.91;;;7.79;100.00
74346;BME280;62776;50.518;6.732;2023-02-03T11:40:41;97484.41;;;7.89;100.00
74346;BME280;62776;50.518;6.732;2023-02-03T11:43:36;97495.78;;;7.99;100.00
74346;BME280;62776;50.518;6.732;2023-02-03T11:46:37;97502.69;;;8.00;100.00
74346;BME280;62776;50.518;6.732;2023-02-03T11:50:02;97486.94;;;7.85;100.00
74346;BME280;62776;50.518;6.732;2023-02-03T12:02:52;97469.06;;;8.03;100.00
74346;BME280;62776;50.518;6.732;2023-02-03T12:12:17;97483.16;;;8.21;100.00
74346;BME280;62776;50.518;6.732;2023-02-03T12:15:58;97489.88;;;8.07;100.00
74346;BME280;62776;50.518;6.732;2023-02-03T12:24:43;97499.44;;;8.13;100.00
74346;BME280;62776;50.518;6.732;2023-02-03T12:28:00;97484.03;;;8.22;100.00
74346;BME280;62776;50.518;6.732;2023-02-03T12:30:57;97494.44;;;8.25;100.00
74346;BME280;62776;50.518;6.732;2023-02-03T12:33:53;97504.91;;;8.31;100.00
74346;BME280;62776;50.518;6.732;2023-02-03T12:36:51;97489.31;;;8.28;100.00
74346;BME280;62776;50.518;6.732;2023-02-03T12:39:49;97483.31;;;8.29;100.00
74346;BME280;62776;50.518;6.732;2023-02-03T12:42:45;97481.56;;;8.28;100.00
74346;BME280;62776;50.518;6.732;2023-02-03T12:45:37;97481.47;;;8.25;100.00
74346;BME280;62776;50.518;6.732;2023-02-03T12:49:12;97478.97;;;8.28;100.00
74346;BME280;62776;50.518;6.732;2023-02-03T12:52:16;97476.94;;;8.09;100.00
74346;BME280;62776;50.518;6.732;2023-02-03T12:58:24;97469.41;;;8.25;100.00
74346;BME280;62776;50.518;6.732;2023-02-03T13:01:27;97470.22;;;8.23;100.00
74346;BME280;62776;50.518;6.732;2023-02-03T13:04:36;97484.84;;;8.19;100.00
74346;BME280;62776;50.518;6.732;2023-02-03T13:07:37;97468.44;;;8.19;100.00
74346;BME280;62776;50.518;6.732;2023-02-03T13:10:37;97448.69;;;8.25;100.00
74346;BME280;62776;50.518;6.732;2023-02-03T13:14:00;97456.38;;;8.19;100.00
74346;BME280;62776;50.518;6.732;2023-02-03T13:17:00;97458.13;;;8.22;100.00
74346;BME280;62776;50.518;6.732;2023-02-03T13:20:23;97463.16;;;8.10;100.00
74346;BME280;62776;50.518;6.732;2023-02-03T13:23:21;97460.00;;;8.29;100.00
74346;BME280;62776;50.518;6.732;2023-02-03T13:32:22;97466.75;;;8.21;100.00
74346;BME280;62776;50.518;6.732;2023-02-03T13:39:07;97463.22;;;8.16;100.00
74346;BME280;62776;50.518;6.732;2023-02-03T13:45:26;97478.09;;;8.27;100.00
74346;BME280;62776;50.518;6.732;2023-02-03T13:48:19;97480.53;;;8.18;100.00
74346;BME280;62776;50.518;6.732;2023-02-03T13:51:16;97475.28;;;8.14;100.00
74346;BME280;62776;50.518;6.732;2023-02-03T13:54:06;97484.81;;;8.16;100.00
74346;BME280;62776;50.518;6.732;2023-02-03T13:57:05;97484.72;;;8.09;100.00
74346;BME280;62776;50.518;6.732;2023-02-03T13:59:55;97488.28;;;8.17;100.00
74346;BME280;62776;50.518;6.732;2023-02-03T14:02:57;97491.56;;;8.05;100.00
74346;BME280;62776;50.518;6.732;2023-02-03T14:05:55;97468.25;;;8.04;100.00
74346;BME280;62776;50.518;6.732;2023-02-03T14:08:47;97474.25;;;8.03;100.00
74346;BME280;62776;50.518;6.732;2023-02-03T14:11:42;97479.47;;;8.06;100.00
74346;BME280;62776;50.518;6.732;2023-02-03T14:23:26;97501.84;;;7.99;100.00
74346;BME280;62776;50.518;6.732;2023-02-03T14:26:34;97506.97;;;7.98;100.00
74346;BME280;62776;50.518;6.732;2023-02-03T14:29:30;97495.91;;;8.08;100.00
74346;BME280;62776;50.518;6.732;2023-02-03T14:32:20;97501.22;;;8.17;100.00
74346;BME280;62776;50.518;6.732;2023-02-03T14:38:15;97508.09;;;8.15;100.00
74346;BME280;62776;50.518;6.732;2023-02-03T14:41:04;97504.69;;;8.17;100.00
74346;BME280;62776;50.518;6.732;2023-02-03T14:50:33;97507.13;;;8.08;100.00
74346;BME280;62776;50.518;6.732;2023-02-03T14:53:47;97529.66;;;8.14;100.00
74346;BME280;62776;50.518;6.732;2023-02-03T15:06:05;97536.38;;;8.01;100.00
74346;BME280;62776;50.518;6.732;2023-02-03T15:08:52;97539.84;;;8.02;100.00
74346;BME280;62776;50.518;6.732;2023-02-03T15:11:44;97538.09;;;8.02;100.00
74346;BME280;62776;50.518;6.732;2023-02-03T15:14:42;97520.84;;;8.03;100.00
74346;BME280;62776;50.518;6.732;2023-02-03T15:17:31;97524.31;;;8.02;100.00
74346;BME280;62776;50.518;6.732;2023-02-03T15:20:36;97523.22;;;7.88;100.00
74346;BME280;62776;50.518;6.732;2023-02-03T15:23:46;97530.22;;;7.95;100.00
74346;BME280;62776;50.518;6.732;2023-02-03T15:26:45;97517.28;;;7.93;100.00
74346;BME280;62776;50.518;6.732;2023-02-03T15:29:47;97533.81;;;8.03;100.00
74346;BME280;62776;50.518;6.732;2023-02-03T15:32:40;97530.28;;;7.98;100.00
74346;BME280;62776;50.518;6.732;2023-02-03T15:35:41;97530.28;;;7.98;100.00
74346;BME280;62776;50.518;6.732;2023-02-03T15:42:03;97529.41;;;7.97;100.00
74346;BME280;62776;50.518;6.732;2023-02-03T15:48:12;97541.44;;;7.94;100.00
74346;BME280;62776;50.518;6.732;2023-02-03T15:51:15;97532.78;;;7.92;100.00
74346;BME280;62776;50.518;6.732;2023-02-03T15:54:16;97545.66;;;7.89;100.00
74346;BME280;62776;50.518;6.732;2023-02-03T15:57:15;97543.13;;;7.92;100.00
74346;BME280;62776;50.518;6.732;2023-02-03T16:00:17;97557.88;;;7.96;100.00
74346;BME280;62776;50.518;6.732;2023-02-03T16:03:20;97563.72;;;7.86;100.00
74346;BME280;62776;50.518;6.732;2023-02-03T16:06:35;97559.44;;;7.86;100.00
74346;BME280;62776;50.518;6.732;2023-02-03T16:09:32;97558.75;;;7.96;100.00
74346;BME280;62776;50.518;6.732;2023-02-03T16:15:24;97571.69;;;7.98;100.00
74346;BME280;62776;50.518;6.732;2023-02-03T16:18:23;97569.06;;;7.95;100.00
74346;BME280;62776;50.518;6.732;2023-02-03T16:21:27;97562.16;;;7.94;100.00
74346;BME280;62776;50.518;6.732;2023-02-03T16:24:37;97568.66;;;7.70;100.00
74346;BME280;62776;50.518;6.732;2023-02-03T16:33:21;97577.81;;;8.03;100.00
74346;BME280;62776;50.518;6.732;2023-02-03T16:36:29;97577.03;;;8.07;100.00
74346;BME280;62776;50.518;6.732;2023-02-03T16:39:34;97583.88;;;8.05;100.00
74346;BME280;62776;50.518;6.732;2023-02-03T16:42:42;97566.69;;;8.07;100.00
74346;BME280;62776;50.518;6.732;2023-02-03T16:45:55;97588.16;;;8.01;100.00
74346;BME280;62776;50.518;6.732;2023-02-03T16:49:02;97589.06;;;8.03;100.00
74346;BME280;62776;50.518;6.732;2023-02-03T16:52:09;97586.53;;;8.06;100.00
74346;BME280;62776;50.518;6.732;2023-02-03T16:54:55;97582.22;;;8.07;100.00
74346;BME280;62776;50.518;6.732;2023-02-03T17:09:14;97613.41;;;8.16;100.00
74346;BME280;62776;50.518;6.732;2023-02-03T17:12:10;97606.34;;;8.06;100.00
74346;BME280;62776;50.518;6.732;2023-02-03T17:14:56;97610.88;;;8.17;100.00
74346;BME280;62776;50.518;6.732;2023-02-03T17:17:43;97616.09;;;8.20;100.00
74346;BME280;62776;50.518;6.732;2023-02-03T17:20:33;97596.19;;;8.18;100.00
74346;BME280;62776;50.518;6.732;2023-02-03T17:23:29;97609.94;;;8.14;100.00
74346;BME280;62776;50.518;6.732;2023-02-03T17:26:18;97608.22;;;8.16;100.00
74346;BME280;62776;50.518;6.732;2023-02-03T17:29:09;97603.03;;;8.13;100.00
74346;BME280;62776;50.518;6.732;2023-02-03T17:31:56;97623.81;;;8.19;100.00
74346;BME280;62776;50.518;6.732;2023-02-03T17:34:44;97617.75;;;8.15;100.00
74346;BME280;62776;50.518;6.732;2023-02-03T17:37:34;97628.00;;;8.11;100.00
74346;BME280;62776;50.518;6.732;2023-02-03T17:40:21;97623.81;;;8.19;100.00